createdAt,value
2019-01-26T00:02:27.784Z,32.25
2019-01-26T00:04:56.108Z,31.63
2019-01-26T00:07:24.444Z,33.10
2019-01-26T00:09:52.789Z,33.57
2019-01-26T00:12:21.117Z,32.67
2019-01-26T00:14:49.459Z,30.40
2019-01-26T00:17:17.814Z,28.87
2019-01-26T00:19:46.174Z,33.53
2019-01-26T00:22:14.495Z,30.30
2019-01-26T00:24:42.904Z,35.03
2019-01-26T00:27:11.544Z,29.82
2019-01-26T00:29:39.862Z,29.73
2019-01-26T00:32:08.239Z,32.23
2019-01-26T00:34:36.689Z,30.80
2019-01-26T00:37:05.092Z,27.60
2019-01-26T00:39:33.455Z,27.73
2019-01-26T00:42:01.845Z,30.20
2019-01-26T00:44:30.247Z,34.90
2019-01-26T00:46:58.590Z,30.30
2019-01-26T00:49:26.924Z,32.77
2019-01-26T00:51:55.266Z,29.20
2019-01-26T00:54:23.621Z,29.97
2019-01-26T00:56:51.940Z,34.70
2019-01-26T00:59:20.313Z,28.03
2019-01-26T01:01:48.733Z,33.83
2019-01-26T01:04:17.138Z,30.23
2019-01-26T01:06:45.457Z,36.17
2019-01-26T01:09:13.877Z,30.87
2019-01-26T01:11:42.221Z,32.77
2019-01-26T01:14:10.930Z,32.63
2019-01-26T01:16:39.281Z,30.85
2019-01-26T01:19:07.739Z,30.40
2019-01-26T01:21:36.112Z,33.33
2019-01-26T01:24:04.553Z,32.57
2019-01-26T01:26:32.899Z,31.35
2019-01-26T01:29:01.250Z,29.27
2019-01-26T01:31:29.637Z,30.47
2019-01-26T01:33:58.029Z,30.20
2019-01-26T01:36:26.504Z,29.07
2019-01-26T01:38:54.818Z,30.88
2019-01-26T01:41:23.180Z,32.33
2019-01-26T01:43:51.591Z,27.63
2019-01-26T01:46:19.920Z,31.40
2019-01-26T01:48:48.252Z,27.25
2019-01-26T01:51:16.640Z,33.63
2019-01-26T01:53:44.973Z,27.37
2019-01-26T01:56:13.665Z,36.40
2019-01-26T01:58:42.009Z,26.30
2019-01-26T02:01:10.674Z,32.10
2019-01-26T02:03:39.193Z,26.37
2019-01-26T02:06:07.513Z,24.60
2019-01-26T02:08:35.842Z,27.50
2019-01-26T02:11:04.339Z,25.00
2019-01-26T02:13:32.766Z,30.23
2019-01-26T02:16:01.156Z,24.90
2019-01-26T02:18:29.507Z,28.10
2019-01-26T02:20:57.904Z,24.83
2019-01-26T02:23:26.319Z,29.90
2019-01-26T02:25:54.651Z,23.80
2019-01-26T02:28:23.120Z,23.50
2019-01-26T02:30:51.459Z,30.77
2019-01-26T02:33:19.814Z,27.42
2019-01-26T02:35:48.133Z,25.50
2019-01-26T02:38:17.060Z,29.60
2019-01-26T02:40:45.352Z,22.33
2019-01-26T02:43:13.716Z,25.77
2019-01-26T02:45:42.045Z,20.23
2019-01-26T02:48:10.895Z,25.17
2019-01-26T02:50:39.334Z,22.23
2019-01-26T02:53:07.656Z,24.00
2019-01-26T02:55:35.967Z,20.27
2019-01-26T02:58:04.519Z,22.37
2019-01-26T03:00:32.836Z,24.23
2019-01-26T03:03:01.264Z,21.50
2019-01-26T03:05:29.590Z,18.60
2019-01-26T03:07:58.029Z,22.07
2019-01-26T03:10:29.407Z,21.07
2019-01-26T03:12:58.526Z,21.70
2019-01-26T03:15:27.023Z,26.53
2019-01-26T03:17:55.432Z,20.93
2019-01-26T03:20:24.580Z,18.85
2019-01-26T03:22:52.909Z,18.77
2019-01-26T03:25:21.327Z,22.40
2019-01-26T03:27:49.662Z,20.33
2019-01-26T03:30:20.831Z,19.27
2019-01-26T03:32:49.264Z,26.57
2019-01-26T03:35:17.804Z,21.37
2019-01-26T03:37:46.564Z,22.05
2019-01-26T03:40:18.483Z,19.30
2019-01-26T03:42:47.105Z,24.17
2019-01-26T03:45:16.514Z,20.15
2019-01-26T03:47:45.353Z,21.83
2019-01-26T03:50:15.262Z,20.73
2019-01-26T03:52:44.201Z,17.20
2019-01-26T03:55:14.645Z,18.00
2019-01-26T03:57:44.004Z,19.42
2019-01-26T04:00:16.907Z,19.13
2019-01-26T04:02:45.358Z,21.00
2019-01-26T04:05:15.167Z,20.53
2019-01-26T04:07:43.576Z,21.57
2019-01-26T04:10:13.385Z,20.80
2019-01-26T04:12:41.722Z,24.82
2019-01-26T04:15:14.281Z,21.45
2019-01-26T04:17:42.664Z,21.73
2019-01-26T04:20:13.714Z,22.33
2019-01-26T04:22:42.114Z,16.90
2019-01-26T04:25:10.968Z,18.10
2019-01-26T04:27:39.402Z,17.10
2019-01-26T04:30:11.720Z,16.62
2019-01-26T04:32:40.101Z,20.10
2019-01-26T04:35:09.518Z,22.70
2019-01-26T04:37:37.880Z,21.13
2019-01-26T04:40:07.967Z,19.50
2019-01-26T04:42:36.369Z,19.00
2019-01-26T04:45:08.616Z,18.53
2019-01-26T04:47:37.053Z,20.97
2019-01-26T04:50:08.102Z,21.30
2019-01-26T04:52:36.562Z,17.15
2019-01-26T04:55:06.592Z,20.63
2019-01-26T04:57:35.008Z,21.87
2019-01-26T05:00:04.102Z,19.07
2019-01-26T05:02:32.516Z,18.80
2019-01-26T05:05:00.866Z,18.43
2019-01-26T05:07:29.279Z,19.83
2019-01-26T05:09:57.616Z,18.40
2019-01-26T05:12:25.998Z,19.60
2019-01-26T05:14:54.374Z,19.97
2019-01-26T05:17:22.720Z,16.23
2019-01-26T05:19:51.051Z,16.60
2019-01-26T05:22:19.374Z,16.00
2019-01-26T05:24:47.726Z,19.27
2019-01-26T05:27:16.079Z,17.00
2019-01-26T05:29:44.448Z,16.30
2019-01-26T05:32:13.227Z,15.47
2019-01-26T05:34:41.532Z,17.80
2019-01-26T05:37:10.358Z,20.53
2019-01-26T05:39:38.639Z,14.90
2019-01-26T05:42:07.001Z,18.07
2019-01-26T05:44:35.331Z,17.23
2019-01-26T05:47:03.737Z,18.90
2019-01-26T05:49:32.081Z,16.30
2019-01-26T05:52:00.422Z,16.30
2019-01-26T05:54:28.747Z,13.30
2019-01-26T05:56:57.066Z,17.37
2019-01-26T05:59:25.405Z,17.93
2019-01-26T06:01:53.729Z,20.90
2019-01-26T06:04:22.062Z,18.33
2019-01-26T06:06:50.380Z,22.07
2019-01-26T06:09:18.725Z,20.00
2019-01-26T06:11:47.052Z,16.80
2019-01-26T06:14:15.516Z,16.63
2019-01-26T06:16:43.816Z,15.97
2019-01-26T06:19:12.181Z,18.65
2019-01-26T06:21:40.538Z,19.20
2019-01-26T06:24:09.335Z,18.07
2019-01-26T06:26:37.635Z,18.12
2019-01-26T06:29:05.970Z,18.37
2019-01-26T06:31:34.299Z,19.50
2019-01-26T06:34:02.657Z,18.83
2019-01-26T06:36:31.504Z,18.00
2019-01-26T06:39:00.020Z,18.50
2019-01-26T06:41:28.384Z,19.10
2019-01-26T06:43:56.699Z,16.57
2019-01-26T06:46:25.121Z,16.50
2019-01-26T06:48:55.426Z,17.87
2019-01-26T06:51:23.795Z,13.62
2019-01-26T06:53:52.082Z,16.10
2019-01-26T06:56:20.449Z,15.70
2019-01-26T06:58:48.760Z,16.90
2019-01-26T07:01:17.203Z,17.05
2019-01-26T07:03:46.142Z,16.97
2019-01-26T07:06:16.560Z,16.53
2019-01-26T07:08:44.871Z,16.52
2019-01-26T07:11:13.247Z,17.70
2019-01-26T07:13:41.589Z,16.67
2019-01-26T07:16:09.954Z,18.80
2019-01-26T07:18:38.332Z,18.60
2019-01-26T07:21:07.250Z,18.13
2019-01-26T07:23:35.607Z,18.70
2019-01-26T07:26:04.101Z,21.43
2019-01-26T07:28:32.451Z,20.50
2019-01-26T07:31:00.797Z,17.13
2019-01-26T07:33:29.142Z,20.23
2019-01-26T07:35:57.486Z,19.13
2019-01-26T07:38:25.824Z,18.50
2019-01-26T07:40:54.224Z,18.50
2019-01-26T07:43:22.725Z,18.93
2019-01-26T07:45:51.128Z,19.43
2019-01-26T07:48:19.549Z,19.87
2019-01-26T07:50:47.886Z,17.10
2019-01-26T07:53:16.243Z,19.57
2019-01-26T07:55:44.591Z,18.60
2019-01-26T07:58:12.996Z,18.07
2019-01-26T08:00:41.345Z,18.23
2019-01-26T08:03:09.679Z,18.35
2019-01-26T08:05:38.635Z,19.00
2019-01-26T08:08:07.286Z,18.30
2019-01-26T08:10:35.670Z,16.23
2019-01-26T08:13:04.148Z,16.10
2019-01-26T08:15:33.205Z,20.00
2019-01-26T08:18:01.679Z,14.50
2019-01-26T08:20:29.992Z,14.70
2019-01-26T08:22:58.346Z,16.90
2019-01-26T08:25:26.719Z,14.37
2019-01-26T08:27:55.148Z,20.10
2019-01-26T08:30:24.280Z,13.13
2019-01-26T08:32:53.151Z,16.53
2019-01-26T08:35:21.530Z,13.57
2019-01-26T08:37:50.454Z,14.20
2019-01-26T08:40:21.340Z,14.05
2019-01-26T08:42:49.892Z,16.27
2019-01-26T08:45:18.267Z,13.15
2019-01-26T08:47:46.681Z,14.13
2019-01-26T08:50:17.730Z,14.60
2019-01-26T08:52:46.261Z,15.17
2019-01-26T08:55:18.426Z,14.80
2019-01-26T08:57:45.412Z,16.00
2019-01-26T09:00:18.384Z,13.83
2019-01-26T09:02:50.578Z,17.80
2019-01-26T09:05:20.012Z,17.47
2019-01-26T09:07:48.822Z,16.07
2019-01-26T09:10:17.438Z,13.70
2019-01-26T09:12:45.844Z,13.37
2019-01-26T09:15:14.437Z,14.23
2019-01-26T09:17:42.859Z,13.67
2019-01-26T09:20:13.469Z,15.30
2019-01-26T09:22:41.796Z,17.07
2019-01-26T09:25:10.976Z,15.47
2019-01-26T09:27:39.529Z,16.33
2019-01-26T09:30:11.170Z,15.03
2019-01-26T09:32:39.571Z,17.13
2019-01-26T09:35:09.742Z,14.77
2019-01-26T09:37:38.224Z,14.40
2019-01-26T09:40:08.638Z,14.30
2019-01-26T09:42:37.018Z,17.23
2019-01-26T09:45:10.594Z,14.90
2019-01-26T09:47:39.003Z,12.97
2019-01-26T09:50:10.149Z,15.23
2019-01-26T09:52:38.702Z,20.55
2019-01-26T09:55:10.804Z,15.00
2019-01-26T09:57:39.198Z,16.27
2019-01-26T10:00:09.324Z,11.33
2019-01-26T10:02:37.641Z,12.73
2019-01-26T10:05:09.337Z,17.20
2019-01-26T10:07:37.711Z,17.90
2019-01-26T10:10:10.196Z,13.45
2019-01-26T10:12:38.695Z,10.72
2019-01-26T10:15:10.710Z,14.90
2019-01-26T10:17:45.476Z,12.37
2019-01-26T10:20:12.527Z,13.83
2019-01-26T10:22:40.856Z,12.73
2019-01-26T10:25:11.189Z,10.00
2019-01-26T10:27:39.597Z,11.63
2019-01-26T10:30:11.543Z,12.77
2019-01-26T10:32:39.900Z,11.90
2019-01-26T10:35:09.293Z,9.70
2019-01-26T10:37:37.621Z,14.73
2019-01-26T10:40:11.530Z,12.40
2019-01-26T10:42:39.870Z,13.33
2019-01-26T10:45:09.486Z,15.50
2019-01-26T10:47:37.822Z,9.80
2019-01-26T10:50:09.290Z,10.27
2019-01-26T10:52:37.590Z,12.93
2019-01-26T10:55:09.977Z,14.27
2019-01-26T10:57:38.442Z,10.00
2019-01-26T11:00:10.489Z,16.33
2019-01-26T11:02:38.913Z,10.73
2019-01-26T11:05:08.307Z,11.17
2019-01-26T11:07:36.664Z,13.20
2019-01-26T11:10:10.745Z,11.97
2019-01-26T11:12:39.124Z,12.40
2019-01-26T11:15:10.726Z,12.23
2019-01-26T11:17:39.107Z,11.18
2019-01-26T11:20:11.515Z,10.03
2019-01-26T11:22:39.857Z,9.30
2019-01-26T11:25:10.731Z,12.00
2019-01-26T11:27:39.921Z,9.68
2019-01-26T11:30:11.776Z,12.77
2019-01-26T11:32:40.209Z,8.37
2019-01-26T11:35:13.512Z,11.67
2019-01-26T11:37:41.899Z,10.15
2019-01-26T11:40:11.725Z,8.80
2019-01-26T11:42:40.083Z,11.27
2019-01-26T11:45:15.893Z,9.48
2019-01-26T11:47:44.254Z,8.97
2019-01-26T11:50:16.297Z,8.83
2019-01-26T11:52:44.701Z,9.63
2019-01-26T11:55:15.091Z,7.57
2019-01-26T11:57:43.432Z,8.25
2019-01-26T12:00:17.287Z,10.60
2019-01-26T12:02:47.727Z,9.80
2019-01-26T12:05:18.023Z,7.83
2019-01-26T12:07:46.332Z,10.33
2019-01-26T12:10:14.735Z,9.83
2019-01-26T12:12:43.097Z,8.93
2019-01-26T12:15:13.765Z,9.43
2019-01-26T12:17:42.177Z,10.50
2019-01-26T12:20:11.988Z,8.97
2019-01-26T12:22:40.449Z,10.37
2019-01-26T12:25:10.365Z,14.33
2019-01-26T12:27:38.763Z,8.20
2019-01-26T12:30:12.886Z,8.53
2019-01-26T12:32:41.290Z,9.80
2019-01-26T12:35:12.580Z,12.50
2019-01-26T12:37:41.074Z,11.30
2019-01-26T12:40:13.111Z,8.77
2019-01-26T12:42:41.504Z,7.30
2019-01-26T12:45:16.166Z,10.23
2019-01-26T12:47:44.613Z,8.63
2019-01-26T12:50:13.285Z,8.20
2019-01-26T12:52:42.122Z,6.63
2019-01-26T12:55:14.916Z,8.70
2019-01-26T12:57:43.373Z,7.90
2019-01-26T13:00:14.443Z,8.43
2019-01-26T13:02:42.850Z,7.87
2019-01-26T13:05:11.605Z,9.77
2019-01-26T13:07:39.950Z,8.67
2019-01-26T13:10:11.004Z,12.87
2019-01-26T13:12:39.454Z,10.17
2019-01-26T13:15:15.068Z,8.97
2019-01-26T13:17:38.688Z,11.53
2019-01-26T13:20:11.841Z,9.28
2019-01-26T13:22:40.248Z,9.20
2019-01-26T13:25:11.376Z,9.97
2019-01-26T13:27:39.737Z,11.27
2019-01-26T13:30:12.717Z,8.93
2019-01-26T13:32:41.021Z,11.30
2019-01-26T13:35:09.717Z,8.43
2019-01-26T13:37:38.055Z,8.75
2019-01-26T13:40:11.278Z,9.43
2019-01-26T13:42:39.677Z,9.20
2019-01-26T13:45:10.376Z,10.53
2019-01-26T13:47:38.816Z,8.23
2019-01-26T13:50:08.955Z,7.40
2019-01-26T13:52:37.303Z,7.30
2019-01-26T13:55:09.965Z,10.03
2019-01-26T13:57:38.411Z,9.25
2019-01-26T14:00:11.673Z,9.73
2019-01-26T14:02:40.061Z,9.67
2019-01-26T14:05:09.093Z,7.50
2019-01-26T14:07:37.381Z,11.53
2019-01-26T14:10:10.216Z,8.60
2019-01-26T14:12:38.497Z,8.73
2019-01-26T14:15:08.683Z,10.00
2019-01-26T14:17:37.815Z,8.35
2019-01-26T14:20:10.741Z,6.90
2019-01-26T14:22:39.054Z,11.60
2019-01-26T14:25:09.558Z,6.50
2019-01-26T14:27:37.928Z,8.50
2019-01-26T14:30:11.594Z,6.80
2019-01-26T14:32:39.956Z,7.70
2019-01-26T14:35:09.891Z,7.47
2019-01-26T14:37:38.341Z,9.10
2019-01-26T14:40:10.889Z,9.00
2019-01-26T14:42:39.172Z,8.60
2019-01-26T14:45:09.620Z,8.13
2019-01-26T14:47:37.983Z,9.57
2019-01-26T14:50:09.951Z,9.50
2019-01-26T14:52:38.305Z,8.73
2019-01-26T14:55:10.372Z,9.00
2019-01-26T14:57:38.809Z,8.97
2019-01-26T15:00:11.329Z,13.00
2019-01-26T15:02:39.658Z,12.27
2019-01-26T15:05:09.225Z,12.60
2019-01-26T15:07:37.606Z,10.13
2019-01-26T15:10:10.369Z,8.50
2019-01-26T15:12:38.755Z,9.77
2019-01-26T15:15:10.851Z,8.47
2019-01-26T15:17:39.313Z,14.47
2019-01-26T15:20:11.938Z,9.20
2019-01-26T15:22:40.338Z,9.80
2019-01-26T15:25:09.134Z,9.80
2019-01-26T15:27:38.212Z,10.43
2019-01-26T15:30:11.276Z,11.50
2019-01-26T15:32:39.611Z,8.87
2019-01-26T15:35:08.551Z,9.13
2019-01-26T15:37:40.051Z,8.60
2019-01-26T15:40:10.782Z,9.43
2019-01-26T15:42:39.229Z,9.03
2019-01-26T15:45:12.241Z,10.38
2019-01-26T15:47:40.568Z,8.35
2019-01-26T15:50:13.168Z,10.78
2019-01-26T15:52:41.989Z,7.40
2019-01-26T15:55:13.634Z,6.87
2019-01-26T15:57:42.070Z,9.05
2019-01-26T16:00:17.767Z,7.53
2019-01-26T16:02:46.217Z,9.40
2019-01-26T16:05:14.763Z,12.05
2019-01-26T16:07:43.089Z,9.50
2019-01-26T16:10:15.617Z,9.00
2019-01-26T16:12:44.026Z,9.50
2019-01-26T16:15:16.480Z,11.87
2019-01-26T16:17:45.006Z,7.97
2019-01-26T16:20:20.250Z,12.03
2019-01-26T16:22:46.707Z,9.90
2019-01-26T16:25:15.650Z,8.27
2019-01-26T16:27:44.078Z,14.87
2019-01-26T16:30:17.899Z,18.53
2019-01-26T16:32:46.479Z,13.77
2019-01-26T16:35:16.108Z,9.33
2019-01-26T16:37:44.554Z,13.07
2019-01-26T16:40:15.062Z,9.27
2019-01-26T16:42:43.624Z,11.20
2019-01-26T16:45:13.673Z,8.90
2019-01-26T16:47:42.525Z,11.80
2019-01-26T16:50:15.962Z,9.98
2019-01-26T16:52:44.333Z,9.07
2019-01-26T16:55:14.237Z,9.57
2019-01-26T16:57:42.567Z,10.40
2019-01-26T17:00:16.294Z,9.10
2019-01-26T17:02:44.747Z,9.50
2019-01-26T17:05:13.647Z,9.67
2019-01-26T17:07:42.053Z,13.40
2019-01-26T17:10:14.121Z,10.20
2019-01-26T17:12:42.478Z,11.15
2019-01-26T17:15:11.989Z,9.90
2019-01-26T17:17:40.313Z,9.60
2019-01-26T17:20:12.518Z,11.43
2019-01-26T17:22:41.375Z,14.63
2019-01-26T17:25:09.854Z,12.60
2019-01-26T17:27:38.320Z,15.10
2019-01-26T17:30:11.188Z,12.90
2019-01-26T17:32:39.520Z,12.93
2019-01-26T17:35:09.277Z,13.50
2019-01-26T17:37:38.199Z,11.50
2019-01-26T17:40:10.391Z,9.83
2019-01-26T17:42:38.765Z,11.80
2019-01-26T17:45:09.783Z,14.13
2019-01-26T17:47:38.214Z,9.40
2019-01-26T17:50:10.301Z,11.33
2019-01-26T17:52:40.515Z,12.07
2019-01-26T17:55:11.159Z,12.15
2019-01-26T17:57:39.925Z,11.93
2019-01-26T18:00:11.071Z,15.83
2019-01-26T18:02:39.607Z,13.80
2019-01-26T18:05:10.796Z,14.90
2019-01-26T18:07:39.287Z,12.80
2019-01-26T18:10:11.857Z,12.17
2019-01-26T18:12:40.141Z,13.40
2019-01-26T18:15:10.245Z,12.00
2019-01-26T18:17:38.679Z,12.20
2019-01-26T18:20:09.541Z,12.93
2019-01-26T18:22:37.833Z,13.87
2019-01-26T18:25:08.143Z,14.37
2019-01-26T18:27:36.862Z,11.47
2019-01-26T18:30:07.756Z,11.97
2019-01-26T18:32:36.152Z,13.77
2019-01-26T18:35:07.996Z,12.03
2019-01-26T18:37:36.321Z,11.00
2019-01-26T18:40:08.655Z,10.63
2019-01-26T18:42:37.106Z,12.10
2019-01-26T18:45:07.518Z,8.90
2019-01-26T18:47:36.307Z,10.80
2019-01-26T18:50:08.893Z,8.70
2019-01-26T18:52:37.222Z,10.97
2019-01-26T18:55:06.583Z,7.97
2019-01-26T18:57:35.054Z,9.13
2019-01-26T19:00:06.039Z,11.73
2019-01-26T19:02:34.374Z,9.93
2019-01-26T19:05:03.806Z,10.67
2019-01-26T19:07:32.121Z,9.83
2019-01-26T19:10:00.445Z,8.53
2019-01-26T19:12:28.877Z,13.50
2019-01-26T19:14:57.284Z,8.80
2019-01-26T19:17:25.578Z,12.93
2019-01-26T19:19:53.911Z,9.33
2019-01-26T19:22:22.326Z,14.50
2019-01-26T19:24:51.097Z,12.68
2019-01-26T19:27:19.426Z,12.23
2019-01-26T19:29:47.769Z,9.25
2019-01-26T19:32:16.162Z,10.07
2019-01-26T19:34:44.467Z,10.77
2019-01-26T19:37:13.205Z,9.20
2019-01-26T19:39:41.520Z,8.87
2019-01-26T19:42:10.626Z,6.60
2019-01-26T19:44:38.945Z,8.20
2019-01-26T19:47:07.426Z,8.80
2019-01-26T19:49:35.722Z,9.17
2019-01-26T19:52:04.186Z,7.47
2019-01-26T19:54:32.941Z,8.60
2019-01-26T19:57:01.318Z,7.50
2019-01-26T19:59:29.625Z,6.93
2019-01-26T20:01:58.035Z,10.57
2019-01-26T20:04:26.460Z,9.45
2019-01-26T20:06:55.137Z,8.83
2019-01-26T20:09:23.494Z,8.30
2019-01-26T20:12:18.051Z,7.40
2019-01-26T20:14:46.436Z,7.17
2019-01-26T20:17:14.778Z,10.13
2019-01-26T20:19:43.222Z,8.80
2019-01-26T20:22:12.240Z,6.73
2019-01-26T20:24:40.556Z,9.30
2019-01-26T20:27:09.026Z,6.40
2019-01-26T20:29:37.484Z,6.20
2019-01-26T20:32:06.051Z,5.97
2019-01-26T20:34:35.595Z,7.67
2019-01-26T20:37:04.143Z,7.50
2019-01-26T20:39:32.566Z,7.87
2019-01-26T20:42:00.945Z,6.23
2019-01-26T20:44:29.341Z,10.50
2019-01-26T20:46:57.694Z,5.77
2019-01-26T20:49:26.064Z,6.60
2019-01-26T20:51:54.398Z,5.53
2019-01-26T20:54:22.775Z,6.43
2019-01-26T20:56:51.206Z,5.13
2019-01-26T20:59:19.515Z,6.92
2019-01-26T21:01:47.860Z,12.07
2019-01-26T21:04:16.239Z,5.78
2019-01-26T21:06:44.624Z,5.90
2019-01-26T21:09:13.373Z,5.60
2019-01-26T21:11:41.833Z,5.90
2019-01-26T21:14:11.122Z,6.15
2019-01-26T21:16:39.464Z,5.97
2019-01-26T21:19:07.845Z,9.75
2019-01-26T21:21:36.170Z,8.60
2019-01-26T21:24:04.859Z,7.90
2019-01-26T21:26:33.294Z,7.30
2019-01-26T21:29:01.624Z,7.90
2019-01-26T21:31:30.111Z,8.45
2019-01-26T21:33:58.426Z,8.53
2019-01-26T21:36:26.736Z,11.40
2019-01-26T21:38:55.061Z,11.20
2019-01-26T21:41:23.489Z,12.00
2019-01-26T21:43:51.904Z,8.73
2019-01-26T21:46:20.317Z,10.40
2019-01-26T21:48:48.706Z,9.00
2019-01-26T21:51:17.042Z,6.87
2019-01-26T21:53:45.552Z,8.00
2019-01-26T21:56:14.213Z,11.40
2019-01-26T21:58:42.559Z,10.23
2019-01-26T22:01:11.374Z,10.00
2019-01-26T22:03:39.694Z,10.40
2019-01-26T22:06:08.074Z,11.43
2019-01-26T22:08:36.479Z,9.20
2019-01-26T22:11:04.928Z,8.83
2019-01-26T22:13:33.877Z,8.47
2019-01-26T22:16:02.219Z,8.10
2019-01-26T22:18:30.552Z,8.90
2019-01-26T22:21:01.023Z,9.20
2019-01-26T22:23:29.472Z,7.93
2019-01-26T22:25:57.824Z,9.20
2019-01-26T22:28:26.176Z,9.33
2019-01-26T22:30:54.490Z,8.10
2019-01-26T22:33:22.869Z,7.40
2019-01-26T22:35:51.204Z,8.87
2019-01-26T22:38:20.204Z,9.68
2019-01-26T22:40:48.604Z,9.23
2019-01-26T22:43:17.061Z,9.77
2019-01-26T22:45:45.530Z,9.90
2019-01-26T22:48:14.105Z,9.60
2019-01-26T22:50:42.430Z,8.63
2019-01-26T22:53:11.674Z,10.57
2019-01-26T22:55:40.106Z,8.83
2019-01-26T22:58:09.508Z,7.57
2019-01-26T23:00:45.141Z,7.50
2019-01-26T23:03:14.504Z,7.97
2019-01-26T23:05:47.767Z,11.40
2019-01-26T23:08:20.470Z,7.10
2019-01-26T23:10:54.221Z,6.80
2019-01-26T23:13:25.177Z,8.50
2019-01-26T23:15:58.834Z,7.75
2019-01-26T23:18:33.863Z,6.60
2019-01-26T23:21:05.456Z,7.35
2019-01-26T23:23:40.547Z,7.10
2019-01-26T23:26:15.259Z,8.00
2019-01-26T23:28:49.253Z,7.50
2019-01-26T23:31:18.800Z,7.30
2019-01-26T23:33:47.517Z,7.00
2019-01-26T23:36:16.617Z,11.70
2019-01-26T23:38:45.058Z,5.93
2019-01-26T23:41:13.864Z,7.63
2019-01-26T23:43:42.243Z,8.43
2019-01-26T23:46:11.276Z,7.80
2019-01-26T23:48:39.565Z,6.90
2019-01-26T23:51:07.979Z,6.50
2019-01-26T23:53:36.493Z,6.83
2019-01-26T23:56:05.149Z,6.20
2019-01-26T23:58:33.518Z,8.90
